createdAt,value
2019-03-06T00:01:13.175Z,9.10
2019-03-06T00:03:41.599Z,9.20
2019-03-06T00:06:16.461Z,9.20
2019-03-06T00:08:40.298Z,9.20
2019-03-06T00:11:08.742Z,9.20
2019-03-06T00:13:37.164Z,9.20
2019-03-06T00:16:05.612Z,9.30
2019-03-06T00:18:34.185Z,9.30
2019-03-06T00:21:02.667Z,9.30
2019-03-06T00:23:31.090Z,9.30
2019-03-06T00:25:59.918Z,9.30
2019-03-06T00:28:28.405Z,9.30
2019-03-06T00:30:56.958Z,9.40
2019-03-06T00:33:25.452Z,9.40
2019-03-06T00:35:55.573Z,9.40
2019-03-06T00:38:24.170Z,9.40
2019-03-06T00:40:57.300Z,9.40
2019-03-06T00:43:25.710Z,9.40
2019-03-06T00:45:54.349Z,9.40
2019-03-06T00:48:22.849Z,9.40
2019-03-06T00:50:51.269Z,9.40
2019-03-06T00:53:19.714Z,9.40
2019-03-06T00:55:48.131Z,9.40
2019-03-06T00:58:16.571Z,9.40
2019-03-06T01:00:44.983Z,9.40
2019-03-06T01:03:13.620Z,9.40
2019-03-06T01:05:42.103Z,9.30
2019-03-06T01:08:10.743Z,9.30
2019-03-06T01:10:39.227Z,9.30
2019-03-06T01:13:07.791Z,9.30
2019-03-06T01:15:36.778Z,9.20
2019-03-06T01:18:05.744Z,9.20
2019-03-06T01:20:34.263Z,9.20
2019-03-06T01:23:02.705Z,9.30
2019-03-06T01:25:31.338Z,9.30
2019-03-06T01:28:00.071Z,9.20
2019-03-06T01:30:28.762Z,9.30
2019-03-06T01:33:05.024Z,9.20
2019-03-06T01:36:00.465Z,9.20
2019-03-06T01:38:34.031Z,9.20
2019-03-06T01:43:41.862Z,9.20
2019-03-06T01:46:10.346Z,9.20
2019-03-06T01:48:38.803Z,9.20
2019-03-06T01:51:07.227Z,9.20
2019-03-06T01:53:35.648Z,9.10
2019-03-06T01:56:04.235Z,9.20
2019-03-06T01:58:33.061Z,9.20
2019-03-06T02:01:02.017Z,9.20
2019-03-06T02:03:30.527Z,9.20
2019-03-06T02:05:59.069Z,9.10
2019-03-06T02:08:27.592Z,9.10
2019-03-06T02:10:56.080Z,9.10
2019-03-06T02:13:24.583Z,9.10
2019-03-06T02:15:53.019Z,9.00
2019-03-06T02:18:21.529Z,9.00
2019-03-06T02:20:49.951Z,9.00
2019-03-06T02:23:18.392Z,9.00
2019-03-06T02:25:46.898Z,9.00
2019-03-06T02:28:15.396Z,9.00
2019-03-06T02:30:43.815Z,8.90
2019-03-06T02:33:12.254Z,8.90
2019-03-06T02:35:50.040Z,8.90
2019-03-06T02:38:18.495Z,8.90
2019-03-06T02:41:06.259Z,8.90
2019-03-06T02:43:34.979Z,8.80
2019-03-06T02:46:03.429Z,8.80
2019-03-06T02:48:31.936Z,8.80
2019-03-06T02:51:00.359Z,8.70
2019-03-06T02:53:28.799Z,8.60
2019-03-06T02:55:57.228Z,8.60
2019-03-06T02:58:27.385Z,8.70
2019-03-06T03:01:16.873Z,8.70
2019-03-06T03:03:49.643Z,8.70
2019-03-06T03:08:56.048Z,8.70
2019-03-06T03:11:24.489Z,8.70
2019-03-06T03:13:53.054Z,8.70
2019-03-06T03:16:21.981Z,8.60
2019-03-06T03:18:50.420Z,8.60
2019-03-06T03:21:18.840Z,8.50
2019-03-06T03:23:47.287Z,8.50
2019-03-06T03:26:15.713Z,8.50
2019-03-06T03:28:44.151Z,8.50
2019-03-06T03:31:12.592Z,8.40
2019-03-06T03:33:41.024Z,8.50
2019-03-06T03:39:06.849Z,8.50
2019-03-06T03:41:35.276Z,8.50
2019-03-06T03:44:03.811Z,8.40
2019-03-06T03:46:32.223Z,8.50
2019-03-06T03:49:01.093Z,8.50
2019-03-06T03:51:29.598Z,8.50
2019-03-06T03:53:58.027Z,8.50
2019-03-06T03:56:45.875Z,8.50
2019-03-06T03:59:14.289Z,8.50
2019-03-06T04:01:43.249Z,8.40
2019-03-06T04:04:11.808Z,8.50
2019-03-06T04:06:40.244Z,8.50
2019-03-06T04:09:08.734Z,8.50
2019-03-06T04:11:37.228Z,8.50
2019-03-06T04:14:05.759Z,8.50
2019-03-06T04:16:34.172Z,8.50
2019-03-06T04:19:02.638Z,8.50
2019-03-06T04:21:31.054Z,8.50
2019-03-06T04:23:59.490Z,8.50
2019-03-06T04:26:27.902Z,8.50
2019-03-06T04:28:56.837Z,8.60
2019-03-06T04:31:25.253Z,8.60
2019-03-06T04:33:53.660Z,8.60
2019-03-06T04:36:22.113Z,8.60
2019-03-06T04:38:50.634Z,8.60
2019-03-06T04:41:19.130Z,8.60
2019-03-06T04:43:47.582Z,8.60
2019-03-06T04:46:16.035Z,8.60
2019-03-06T04:48:44.441Z,8.60
2019-03-06T04:51:13.224Z,8.60
2019-03-06T04:53:41.827Z,8.60
2019-03-06T04:56:10.278Z,8.60
2019-03-06T04:58:38.699Z,8.50
2019-03-06T05:01:07.195Z,8.50
2019-03-06T05:03:35.668Z,8.40
2019-03-06T05:06:04.168Z,8.40
2019-03-06T05:08:32.886Z,8.40
2019-03-06T05:11:01.316Z,8.40
2019-03-06T05:13:29.768Z,8.40
2019-03-06T05:15:58.220Z,8.40
2019-03-06T05:18:30.969Z,8.40
2019-03-06T05:20:59.676Z,8.40
2019-03-06T05:23:28.095Z,8.50
2019-03-06T05:25:56.553Z,8.40
2019-03-06T05:28:24.980Z,8.50
2019-03-06T05:30:53.506Z,8.50
2019-03-06T05:33:22.279Z,8.50
2019-03-06T05:35:59.534Z,8.50
2019-03-06T05:38:42.863Z,8.50
2019-03-06T05:41:11.310Z,8.60
2019-03-06T05:43:39.736Z,8.60
2019-03-06T05:46:08.183Z,8.60
2019-03-06T05:48:36.627Z,8.60
2019-03-06T05:51:05.227Z,8.70
2019-03-06T05:53:33.665Z,8.70
2019-03-06T05:56:02.540Z,8.70
2019-03-06T05:58:31.007Z,8.70
2019-03-06T06:00:59.432Z,8.70
2019-03-06T06:03:27.853Z,8.80
2019-03-06T06:05:56.299Z,8.80
2019-03-06T06:08:24.725Z,8.80
2019-03-06T06:10:53.151Z,8.80
2019-03-06T06:13:21.595Z,8.80
2019-03-06T06:16:09.355Z,8.80
2019-03-06T06:18:37.807Z,8.90
2019-03-06T06:24:03.105Z,8.90
2019-03-06T06:26:31.530Z,9.00
2019-03-06T06:28:59.943Z,8.90
2019-03-06T06:31:28.387Z,9.00
2019-03-06T06:33:56.823Z,9.00
2019-03-06T06:36:25.579Z,9.00
2019-03-06T06:38:54.047Z,9.00
2019-03-06T06:41:22.551Z,9.10
2019-03-06T06:43:51.037Z,9.10
2019-03-06T06:46:19.495Z,9.10
2019-03-06T06:48:47.955Z,9.10
2019-03-06T06:52:08.919Z,9.10
2019-03-06T06:55:01.803Z,9.10
2019-03-06T06:57:45.591Z,9.20
2019-03-06T07:00:27.711Z,9.10
2019-03-06T07:03:35.024Z,9.20
2019-03-06T07:06:10.995Z,9.20
2019-03-06T07:08:50.127Z,9.20
2019-03-06T07:11:23.309Z,9.30
2019-03-06T07:14:02.343Z,9.30
2019-03-06T07:16:51.737Z,9.40
2019-03-06T07:19:33.939Z,9.40
2019-03-06T07:22:06.671Z,9.40
2019-03-06T07:24:42.705Z,9.50
2019-03-06T07:27:16.291Z,9.50
2019-03-06T07:29:58.643Z,9.50
2019-03-06T07:32:43.989Z,9.60
2019-03-06T07:35:59.195Z,9.60
2019-03-06T07:38:27.888Z,9.60
2019-03-06T07:41:13.318Z,9.60
2019-03-06T07:43:55.367Z,9.60
2019-03-06T07:46:25.472Z,9.70
2019-03-06T07:49:16.487Z,9.70
2019-03-06T07:51:55.387Z,9.80
2019-03-06T07:54:53.974Z,9.80
2019-03-06T07:57:39.302Z,9.90
2019-03-06T08:00:15.011Z,10.10
2019-03-06T08:03:16.207Z,10.20
2019-03-06T08:05:44.667Z,10.30
2019-03-06T08:08:13.099Z,10.30
2019-03-06T08:10:51.689Z,10.40
2019-03-06T08:13:41.348Z,10.50
2019-03-06T08:16:11.427Z,10.50
2019-03-06T08:19:00.826Z,10.60
2019-03-06T08:21:33.831Z,10.60
2019-03-06T08:24:03.923Z,10.50
2019-03-06T08:26:51.736Z,10.50
2019-03-06T08:29:21.052Z,10.50
2019-03-06T08:31:51.183Z,10.60
2019-03-06T08:34:19.662Z,10.60
2019-03-06T08:36:48.632Z,10.70
2019-03-06T08:39:36.488Z,10.70
2019-03-06T08:42:04.985Z,10.80
2019-03-06T08:44:33.436Z,10.90
2019-03-06T08:47:19.982Z,11.00
2019-03-06T08:50:26.051Z,11.00
2019-03-06T08:56:10.562Z,11.20
2019-03-06T08:58:55.917Z,11.10
2019-03-06T09:01:30.618Z,11.20
2019-03-06T09:04:12.702Z,11.20
2019-03-06T09:06:49.348Z,11.20
2019-03-06T09:09:22.311Z,11.30
2019-03-06T09:12:20.843Z,11.20
2019-03-06T09:17:49.843Z,11.40
2019-03-06T09:20:40.727Z,11.50
2019-03-06T09:23:29.171Z,11.70
2019-03-06T09:26:05.098Z,11.90
2019-03-06T09:28:47.579Z,12.00
2019-03-06T09:31:23.430Z,12.00
2019-03-06T09:34:18.924Z,12.00
2019-03-06T09:36:49.006Z,12.10
2019-03-06T09:39:20.145Z,12.10
2019-03-06T09:41:53.231Z,12.20
2019-03-06T09:44:43.135Z,12.20
2019-03-06T09:47:13.207Z,12.30
2019-03-06T09:49:43.264Z,12.40
2019-03-06T09:52:28.116Z,12.50
2019-03-06T09:55:20.250Z,12.60
2019-03-06T09:57:53.040Z,12.70
2019-03-06T10:00:32.749Z,12.70
2019-03-06T10:06:06.167Z,12.80
2019-03-06T10:08:42.359Z,12.80
2019-03-06T10:11:27.562Z,12.90
2019-03-06T10:13:57.638Z,13.10
2019-03-06T10:16:28.934Z,13.20
2019-03-06T10:19:06.975Z,13.30
2019-03-06T10:21:55.137Z,13.50
2019-03-06T10:24:23.717Z,13.50
2019-03-06T10:27:11.556Z,13.60
2019-03-06T10:29:40.094Z,13.70
2019-03-06T10:32:27.934Z,13.80
2019-03-06T10:34:56.454Z,13.80
2019-03-06T10:37:24.963Z,13.80
2019-03-06T10:39:53.460Z,13.90
2019-03-06T10:42:41.333Z,13.90
2019-03-06T10:45:10.643Z,14.00
2019-03-06T10:47:39.171Z,14.10
2019-03-06T10:50:29.194Z,14.10
2019-03-06T10:52:57.327Z,14.20
2019-03-06T10:55:25.843Z,14.30
2019-03-06T10:58:14.007Z,14.40
2019-03-06T11:00:44.247Z,14.70
2019-03-06T11:03:12.889Z,14.80
2019-03-06T11:05:41.692Z,15.00
2019-03-06T11:08:10.284Z,15.20
2019-03-06T11:10:58.182Z,15.30
2019-03-06T11:13:39.061Z,15.40
2019-03-06T11:16:09.264Z,15.50
2019-03-06T11:18:37.830Z,15.50
2019-03-06T11:21:06.630Z,15.50
2019-03-06T11:23:35.214Z,15.60
2019-03-06T11:26:05.458Z,15.70
2019-03-06T11:28:34.119Z,15.70
2019-03-06T11:31:21.887Z,15.80
2019-03-06T11:33:50.411Z,15.80
2019-03-06T11:36:38.354Z,15.90
2019-03-06T11:39:26.273Z,16.00
2019-03-06T11:41:54.879Z,16.10
2019-03-06T11:44:23.376Z,16.10
2019-03-06T11:47:11.162Z,16.10
2019-03-06T11:49:59.225Z,16.10
2019-03-06T11:52:27.771Z,16.10
2019-03-06T11:54:56.248Z,16.10
2019-03-06T11:57:44.687Z,16.00
2019-03-06T12:00:46.253Z,16.00
2019-03-06T12:03:17.420Z,16.00
2019-03-06T12:05:46.648Z,16.00
2019-03-06T12:08:17.208Z,15.90
2019-03-06T12:11:05.073Z,15.90
2019-03-06T12:13:47.288Z,15.90
2019-03-06T12:16:27.673Z,16.10
2019-03-06T12:18:56.190Z,16.20
2019-03-06T12:21:25.357Z,16.30
2019-03-06T12:24:13.360Z,16.40
2019-03-06T12:27:01.219Z,16.40
2019-03-06T12:29:29.648Z,16.40
2019-03-06T12:32:04.952Z,16.40
2019-03-06T12:34:33.375Z,16.30
2019-03-06T12:37:21.159Z,16.20
2019-03-06T12:39:49.650Z,16.10
2019-03-06T12:42:18.091Z,15.90
2019-03-06T12:44:46.560Z,15.90
2019-03-06T12:47:26.827Z,15.80
2019-03-06T12:49:55.315Z,15.60
2019-03-06T12:52:23.828Z,15.60
2019-03-06T12:54:52.374Z,15.50
2019-03-06T12:57:20.842Z,15.40
2019-03-06T13:00:10.520Z,15.30
2019-03-06T13:02:51.491Z,15.20
2019-03-06T13:05:21.158Z,15.10
2019-03-06T13:08:19.220Z,15.00
2019-03-06T13:10:39.271Z,14.90
2019-03-06T13:13:35.211Z,14.90
2019-03-06T13:15:57.275Z,14.80
2019-03-06T13:18:25.771Z,14.80
2019-03-06T13:20:59.955Z,14.70
2019-03-06T13:23:31.469Z,14.80
2019-03-06T13:26:12.523Z,14.80
2019-03-06T13:28:57.403Z,14.80
2019-03-06T13:31:23.364Z,14.80
2019-03-06T13:34:11.499Z,14.90
2019-03-06T13:36:39.963Z,14.90
2019-03-06T13:39:09.488Z,14.90
2019-03-06T13:41:37.991Z,14.90
2019-03-06T13:44:06.626Z,14.90
2019-03-06T13:46:35.102Z,14.90
2019-03-06T13:49:03.556Z,14.80
2019-03-06T13:51:32.064Z,14.80
2019-03-06T13:54:00.600Z,14.80
2019-03-06T13:56:29.042Z,14.70
2019-03-06T13:59:02.265Z,14.70
2019-03-06T14:01:30.721Z,14.70
2019-03-06T14:03:59.270Z,14.70
2019-03-06T14:06:27.840Z,14.70
2019-03-06T14:08:56.403Z,14.70
2019-03-06T14:11:24.865Z,14.70
2019-03-06T14:13:53.372Z,14.60
2019-03-06T14:16:26.659Z,14.60
2019-03-06T14:18:55.168Z,14.60
2019-03-06T14:21:23.702Z,14.50
2019-03-06T14:23:52.195Z,14.50
2019-03-06T14:26:33.255Z,14.60
2019-03-06T14:29:01.710Z,14.60
2019-03-06T14:31:31.385Z,14.60
2019-03-06T14:33:59.974Z,14.60
2019-03-06T14:36:34.578Z,14.60
2019-03-06T14:39:26.359Z,14.60
2019-03-06T14:41:56.223Z,14.60
2019-03-06T14:44:44.202Z,14.50
2019-03-06T14:47:17.194Z,14.50
2019-03-06T14:49:45.619Z,14.40
2019-03-06T14:52:33.612Z,14.40
2019-03-06T14:55:02.063Z,14.40
2019-03-06T14:57:50.003Z,14.30
2019-03-06T15:00:20.413Z,14.30
2019-03-06T15:03:08.204Z,14.30
2019-03-06T15:05:36.742Z,14.30
2019-03-06T15:08:11.481Z,14.20
2019-03-06T15:10:42.964Z,14.20
2019-03-06T15:13:10.172Z,14.20
2019-03-06T15:15:38.731Z,14.20
2019-03-06T15:18:15.084Z,14.20
2019-03-06T15:20:43.692Z,14.20
2019-03-06T15:23:12.264Z,14.20
2019-03-06T15:25:40.779Z,14.20
2019-03-06T15:28:09.204Z,14.10
2019-03-06T15:30:37.864Z,14.10
2019-03-06T15:33:06.568Z,14.10
2019-03-06T15:35:35.092Z,14.10
2019-03-06T15:38:14.353Z,14.10
2019-03-06T15:40:42.922Z,14.10
2019-03-06T15:43:13.382Z,14.10
2019-03-06T15:45:42.027Z,14.10
2019-03-06T15:48:10.566Z,14.10
2019-03-06T15:50:58.373Z,14.10
2019-03-06T15:53:26.940Z,14.10
2019-03-06T15:56:03.164Z,14.10
2019-03-06T15:58:31.751Z,14.10
2019-03-06T16:01:00.208Z,14.00
2019-03-06T16:03:28.770Z,14.00
2019-03-06T16:05:58.378Z,14.00
2019-03-06T16:08:27.949Z,14.00
2019-03-06T16:10:56.654Z,14.00
2019-03-06T16:13:25.210Z,14.00
2019-03-06T16:15:54.045Z,13.90
2019-03-06T16:18:29.721Z,13.90
2019-03-06T16:21:17.647Z,13.90
2019-03-06T16:23:46.107Z,13.90
2019-03-06T16:26:22.749Z,13.90
2019-03-06T16:28:51.259Z,13.90
2019-03-06T16:31:20.079Z,13.80
2019-03-06T16:33:48.587Z,13.80
2019-03-06T16:36:17.854Z,13.70
2019-03-06T16:39:06.927Z,13.70
2019-03-06T16:41:35.473Z,13.70
2019-03-06T16:44:08.068Z,13.60
2019-03-06T16:46:36.597Z,13.60
2019-03-06T16:49:05.179Z,13.60
2019-03-06T16:51:33.668Z,13.60
2019-03-06T16:54:02.268Z,13.50
2019-03-06T16:56:31.276Z,13.50
2019-03-06T16:59:00.176Z,13.50
2019-03-06T17:01:31.742Z,13.50
2019-03-06T17:04:00.272Z,13.50
2019-03-06T17:06:28.809Z,13.50
2019-03-06T17:08:57.502Z,13.40
2019-03-06T17:11:26.182Z,13.40
2019-03-06T17:13:54.696Z,13.40
2019-03-06T17:16:23.291Z,13.40
2019-03-06T17:18:51.857Z,13.40
2019-03-06T17:21:20.455Z,13.30
2019-03-06T17:23:48.954Z,13.30
2019-03-06T17:26:17.676Z,13.30
2019-03-06T17:28:46.235Z,13.30
2019-03-06T17:31:16.407Z,13.30
2019-03-06T17:33:44.986Z,13.30
2019-03-06T17:36:13.540Z,13.30
2019-03-06T17:38:42.104Z,13.20
2019-03-06T17:41:10.815Z,13.20
2019-03-06T17:43:39.316Z,13.20
2019-03-06T17:46:08.037Z,13.20
2019-03-06T17:48:36.541Z,13.20
2019-03-06T17:51:05.608Z,13.20
2019-03-06T17:53:34.138Z,13.10
2019-03-06T17:56:02.975Z,13.10
2019-03-06T17:58:50.940Z,13.10
2019-03-06T18:01:20.116Z,13.10
2019-03-06T18:03:51.611Z,13.10
2019-03-06T18:06:22.626Z,13.10
2019-03-06T18:09:12.020Z,13.10
2019-03-06T18:11:40.893Z,13.00
2019-03-06T18:14:09.391Z,13.00
2019-03-06T18:16:38.351Z,13.00
2019-03-06T18:19:06.990Z,13.00
2019-03-06T18:21:35.572Z,13.00
2019-03-06T18:24:04.220Z,13.00
2019-03-06T18:26:33.188Z,13.00
2019-03-06T18:29:01.883Z,13.00
2019-03-06T18:31:30.782Z,13.00
2019-03-06T18:33:59.292Z,13.00
2019-03-06T18:36:27.831Z,12.90
2019-03-06T18:38:56.587Z,12.90
2019-03-06T18:41:25.421Z,13.00
2019-03-06T18:46:44.435Z,13.00
2019-03-06T18:49:13.414Z,12.90
2019-03-06T18:51:42.068Z,13.00
2019-03-06T18:54:10.568Z,13.00
2019-03-06T18:56:39.138Z,13.00
2019-03-06T18:59:08.074Z,13.00
2019-03-06T19:01:36.571Z,13.00
2019-03-06T19:04:05.291Z,13.00
2019-03-06T19:06:53.168Z,13.00
2019-03-06T19:09:21.747Z,13.00
2019-03-06T19:11:50.273Z,13.00
2019-03-06T19:14:18.989Z,13.00
2019-03-06T19:17:06.939Z,13.00
2019-03-06T19:19:35.578Z,13.00
2019-03-06T19:22:04.720Z,13.00
2019-03-06T19:27:30.024Z,13.00
2019-03-06T19:29:58.483Z,13.00
2019-03-06T19:32:27.003Z,13.00
2019-03-06T19:34:55.572Z,13.10
2019-03-06T19:37:24.097Z,13.00
2019-03-06T19:39:52.584Z,13.00
2019-03-06T19:42:21.115Z,13.00
2019-03-06T19:44:49.698Z,13.00
2019-03-06T19:47:18.651Z,13.00
2019-03-06T19:49:47.359Z,13.10
2019-03-06T19:52:16.018Z,13.10
2019-03-06T19:54:44.457Z,13.10
2019-03-06T19:57:13.136Z,13.10
2019-03-06T19:59:41.807Z,13.10
2019-03-06T20:02:10.328Z,13.10
2019-03-06T20:04:58.394Z,13.10
2019-03-06T20:07:26.949Z,13.10
2019-03-06T20:09:55.708Z,13.10
2019-03-06T20:12:24.440Z,13.10
2019-03-06T20:14:53.135Z,13.10
2019-03-06T20:17:21.722Z,13.10
2019-03-06T20:19:51.922Z,13.10
2019-03-06T20:22:20.469Z,13.10
2019-03-06T20:24:49.156Z,13.10
2019-03-06T20:27:20.472Z,13.10
2019-03-06T20:29:49.132Z,13.20
2019-03-06T20:32:17.763Z,13.20
2019-03-06T20:34:46.258Z,13.20
2019-03-06T20:37:14.793Z,13.20
2019-03-06T20:39:43.913Z,13.20
2019-03-06T20:42:12.441Z,13.20
2019-03-06T20:44:41.059Z,13.20
2019-03-06T20:47:29.584Z,13.20
2019-03-06T20:49:58.328Z,13.20
2019-03-06T20:52:26.935Z,13.10
2019-03-06T20:54:55.519Z,13.20
2019-03-06T20:57:44.285Z,13.10
2019-03-06T21:00:20.231Z,13.10
2019-03-06T21:02:48.732Z,13.10
2019-03-06T21:05:17.404Z,13.10
2019-03-06T21:07:46.106Z,13.10
2019-03-06T21:10:16.226Z,13.10
2019-03-06T21:12:44.865Z,13.10
2019-03-06T21:15:18.722Z,13.10
2019-03-06T21:17:47.255Z,13.10
2019-03-06T21:20:18.213Z,13.10
2019-03-06T21:22:46.722Z,13.10
2019-03-06T21:25:20.028Z,13.10
2019-03-06T21:27:48.827Z,13.10
2019-03-06T21:30:26.711Z,13.00
2019-03-06T21:32:55.248Z,13.00
2019-03-06T21:35:23.831Z,13.00
2019-03-06T21:37:52.463Z,12.90
2019-03-06T21:40:20.995Z,13.00
2019-03-06T21:42:49.781Z,12.90
2019-03-06T21:45:18.457Z,12.90
2019-03-06T21:47:47.069Z,12.90
2019-03-06T21:50:16.822Z,13.00
2019-03-06T21:52:45.393Z,12.90
2019-03-06T21:55:14.953Z,12.90
2019-03-06T21:57:43.511Z,12.90
2019-03-06T22:00:31.343Z,12.90
2019-03-06T22:02:59.883Z,12.90
2019-03-06T22:05:28.429Z,12.90
2019-03-06T22:07:56.936Z,12.90
2019-03-06T22:10:25.865Z,12.80
2019-03-06T22:12:54.388Z,12.80
2019-03-06T22:15:23.894Z,12.80
2019-03-06T22:17:52.405Z,12.80
2019-03-06T22:20:21.136Z,12.80
2019-03-06T22:22:49.640Z,12.80
2019-03-06T22:25:18.894Z,12.80
2019-03-06T22:27:47.443Z,12.80
2019-03-06T22:30:18.651Z,12.80
2019-03-06T22:32:47.312Z,12.80
2019-03-06T22:35:15.881Z,12.80
2019-03-06T22:37:53.264Z,12.80
2019-03-06T22:40:21.863Z,12.80
2019-03-06T22:42:50.398Z,12.80
2019-03-06T22:45:20.232Z,12.80
2019-03-06T22:47:48.864Z,12.80
2019-03-06T22:50:20.911Z,12.80
2019-03-06T22:52:49.879Z,12.80
2019-03-06T22:55:19.451Z,12.80
2019-03-06T22:57:48.050Z,12.70
2019-03-06T23:00:32.543Z,12.70
2019-03-06T23:03:01.115Z,12.60
2019-03-06T23:05:35.115Z,12.50
2019-03-06T23:08:03.719Z,12.50
2019-03-06T23:10:32.268Z,12.50
2019-03-06T23:13:00.722Z,12.50
2019-03-06T23:15:29.307Z,12.50
2019-03-06T23:17:58.015Z,12.50
2019-03-06T23:20:45.883Z,12.60
2019-03-06T23:23:14.551Z,12.60
2019-03-06T23:25:43.013Z,12.60
2019-03-06T23:28:11.806Z,12.60
2019-03-06T23:30:40.340Z,12.60
2019-03-06T23:33:08.828Z,12.50
2019-03-06T23:35:37.403Z,12.50
2019-03-06T23:38:05.941Z,12.50
2019-03-06T23:40:35.045Z,12.50
2019-03-06T23:43:03.536Z,12.50
2019-03-06T23:48:29.451Z,12.50
2019-03-06T23:50:59.523Z,12.50
2019-03-06T23:53:29.606Z,12.50
2019-03-06T23:56:04.342Z,12.50
2019-03-06T23:58:32.792Z,12.50
